Aviation Digital Data Service (ADDS)

Output produced by METARs form (0621 UTC 27 August 2016)
found at http://aviationweather.gov/adds/metars/
 
KBDR 270520Z 2706/2806 34006KT P6SM SKC 
     FM271200 03008KT P6SM SKC 
     FM271600 09008KT P6SM FEW250 
     FM271800 15009KT P6SM FEW050 SCT250 
     FM280100 VRB05KT P6SM FEW250